sensor_id;sensor_type;location;lat;lon;timestamp;pressure;altitude;pressure_sealevel;temperature;humidity
54308;BME280;40208;39.778;2.710;2023-02-22T00:01:35;101593.28;;;9.57;100.00
54308;BME280;40208;39.778;2.710;2023-02-22T00:04:30;101597.16;;;9.44;100.00
54308;BME280;40208;39.778;2.710;2023-02-22T00:07:19;101594.59;;;9.41;100.00
54308;BME280;40208;39.778;2.710;2023-02-22T00:10:04;101590.78;;;9.51;100.00
54308;BME280;40208;39.778;2.710;2023-02-22T00:12:52;101599.56;;;9.84;100.00
54308;BME280;40208;39.778;2.710;2023-02-22T00:15:37;101604.22;;;9.76;100.00
54308;BME280;40208;39.778;2.710;2023-02-22T00:18:24;101599.22;;;9.65;100.00
54308;BME280;40208;39.778;2.710;2023-02-22T00:21:13;101595.66;;;9.66;100.00
54308;BME280;40208;39.778;2.710;2023-02-22T00:23:58;101586.88;;;9.64;100.00
54308;BME280;40208;39.778;2.710;2023-02-22T00:26:43;101596.88;;;9.54;100.00
54308;BME280;40208;39.778;2.710;2023-02-22T00:29:30;101582.91;;;9.49;100.00
54308;BME280;40208;39.778;2.710;2023-02-22T00:32:17;101599.06;;;9.39;100.00
54308;BME280;40208;39.778;2.710;2023-02-22T00:35:02;101596.63;;;9.31;100.00
54308;BME280;40208;39.778;2.710;2023-02-22T01:08:11;101637.88;;;9.07;100.00
54308;BME280;40208;39.778;2.710;2023-02-22T01:10:57;101639.66;;;9.06;100.00
54308;BME280;40208;39.778;2.710;2023-02-22T01:13:41;101629.00;;;9.08;100.00
54308;BME280;40208;39.778;2.710;2023-02-22T01:16:28;101639.50;;;9.11;100.00
54308;BME280;40208;39.778;2.710;2023-02-22T01:19:13;101629.97;;;9.05;100.00
54308;BME280;40208;39.778;2.710;2023-02-22T01:21:57;101625.59;;;9.04;100.00
54308;BME280;40208;39.778;2.710;2023-02-22T01:24:42;101621.19;;;9.03;100.00
54308;BME280;40208;39.778;2.710;2023-02-22T01:27:27;101620.41;;;9.00;100.00
54308;BME280;40208;39.778;2.710;2023-02-22T01:30:13;101618.50;;;9.05;100.00
54308;BME280;40208;39.778;2.710;2023-02-22T01:32:58;101611.22;;;9.13;100.00
54308;BME280;40208;39.778;2.710;2023-02-22T01:35:43;101612.06;;;9.15;100.00
54308;BME280;40208;39.778;2.710;2023-02-22T01:38:29;101599.88;;;9.08;100.00
54308;BME280;40208;39.778;2.710;2023-02-22T01:41:14;101593.09;;;8.98;100.00
54308;BME280;40208;39.778;2.710;2023-02-22T01:47:05;101581.75;;;8.93;100.00
54308;BME280;40208;39.778;2.710;2023-02-22T01:49:50;101577.31;;;8.93;100.00
54308;BME280;40208;39.778;2.710;2023-02-22T01:52:35;101575.78;;;8.84;100.00
54308;BME280;40208;39.778;2.710;2023-02-22T01:55:20;101570.66;;;8.78;100.00
54308;BME280;40208;39.778;2.710;2023-02-22T01:58:05;101568.06;;;8.75;100.00
54308;BME280;40208;39.778;2.710;2023-02-22T02:00:50;101568.13;;;8.74;100.00
54308;BME280;40208;39.778;2.710;2023-02-22T02:03:35;101561.88;;;8.76;100.00
54308;BME280;40208;39.778;2.710;2023-02-22T02:06:21;101562.00;;;8.72;100.00
54308;BME280;40208;39.778;2.710;2023-02-22T02:09:20;101555.84;;;8.69;100.00
54308;BME280;40208;39.778;2.710;2023-02-22T02:12:07;101553.41;;;8.62;100.00
54308;BME280;40208;39.778;2.710;2023-02-22T02:14:53;101552.66;;;8.57;100.00
54308;BME280;40208;39.778;2.710;2023-02-22T02:17:58;101552.81;;;8.49;100.00
54308;BME280;40208;39.778;2.710;2023-02-22T02:26:50;101551.28;;;8.40;100.00
54308;BME280;40208;39.778;2.710;2023-02-22T02:32:54;101528.16;;;8.47;100.00
54308;BME280;40208;39.778;2.710;2023-02-22T02:38:31;101525.84;;;8.33;100.00
54308;BME280;40208;39.778;2.710;2023-02-22T02:41:19;101516.06;;;8.37;100.00
54308;BME280;40208;39.778;2.710;2023-02-22T02:44:16;101513.53;;;8.32;100.00
54308;BME280;40208;39.778;2.710;2023-02-22T02:47:09;101513.50;;;8.34;100.00
54308;BME280;40208;39.778;2.710;2023-02-22T02:49:57;101500.94;;;8.43;100.00
54308;BME280;40208;39.778;2.710;2023-02-22T02:52:44;101497.50;;;8.40;100.00
54308;BME280;40208;39.778;2.710;2023-02-22T02:55:29;101488.00;;;8.31;100.00
54308;BME280;40208;39.778;2.710;2023-02-22T02:58:16;101484.66;;;8.23;100.00
54308;BME280;40208;39.778;2.710;2023-02-22T03:01:01;101485.56;;;8.22;100.00
54308;BME280;40208;39.778;2.710;2023-02-22T03:04:10;101483.97;;;8.15;100.00
54308;BME280;40208;39.778;2.710;2023-02-22T03:18:46;101489.72;;;7.95;100.00
54308;BME280;40208;39.778;2.710;2023-02-22T03:21:33;101490.72;;;7.89;100.00
54308;BME280;40208;39.778;2.710;2023-02-22T03:27:17;101489.22;;;7.79;100.00
54308;BME280;40208;39.778;2.710;2023-02-22T03:30:06;101492.88;;;7.72;100.00
54308;BME280;40208;39.778;2.710;2023-02-22T03:32:57;101495.56;;;7.69;100.00
54308;BME280;40208;39.778;2.710;2023-02-22T03:35:44;101488.50;;;7.71;100.00
54308;BME280;40208;39.778;2.710;2023-02-22T03:38:31;101485.94;;;7.68;100.00
54308;BME280;40208;39.778;2.710;2023-02-22T03:41:21;101486.03;;;7.61;100.00
54308;BME280;40208;39.778;2.710;2023-02-22T03:44:10;101481.56;;;7.65;100.00
54308;BME280;40208;39.778;2.710;2023-02-22T03:46:56;101480.56;;;7.71;100.00
54308;BME280;40208;39.778;2.710;2023-02-22T03:49:50;101479.81;;;7.65;100.00
54308;BME280;40208;39.778;2.710;2023-02-22T03:52:37;101471.94;;;7.64;100.00
54308;BME280;40208;39.778;2.710;2023-02-22T03:55:22;101468.47;;;7.60;100.00
54308;BME280;40208;39.778;2.710;2023-02-22T03:58:08;101457.16;;;7.54;100.00
54308;BME280;40208;39.778;2.710;2023-02-22T04:00:54;101458.09;;;7.51;100.00
54308;BME280;40208;39.778;2.710;2023-02-22T04:03:39;101452.91;;;7.47;100.00
54308;BME280;40208;39.778;2.710;2023-02-22T04:06:26;101451.13;;;7.47;100.00
54308;BME280;40208;39.778;2.710;2023-02-22T04:09:10;101449.22;;;7.55;100.00
54308;BME280;40208;39.778;2.710;2023-02-22T04:11:55;101444.78;;;7.56;100.00
54308;BME280;40208;39.778;2.710;2023-02-22T04:14:40;101449.13;;;7.60;100.00
54308;BME280;40208;39.778;2.710;2023-02-22T04:17:25;101442.16;;;7.56;100.00
54308;BME280;40208;39.778;2.710;2023-02-22T04:20:10;101448.25;;;7.59;100.00
54308;BME280;40208;39.778;2.710;2023-02-22T04:22:56;101449.84;;;7.67;100.00
54308;BME280;40208;39.778;2.710;2023-02-22T04:25:41;101452.50;;;7.67;100.00
54308;BME280;40208;39.778;2.710;2023-02-22T04:28:26;101454.34;;;7.61;100.00
54308;BME280;40208;39.778;2.710;2023-02-22T04:31:11;101450.91;;;7.59;100.00
54308;BME280;40208;39.778;2.710;2023-02-22T04:33:56;101453.56;;;7.58;100.00
54308;BME280;40208;39.778;2.710;2023-02-22T04:36:40;101452.69;;;7.57;100.00
54308;BME280;40208;39.778;2.710;2023-02-22T04:39:28;101454.53;;;7.54;100.00
54308;BME280;40208;39.778;2.710;2023-02-22T04:42:13;101455.56;;;7.47;100.00
54308;BME280;40208;39.778;2.710;2023-02-22T04:44:58;101465.38;;;7.40;100.00
54308;BME280;40208;39.778;2.710;2023-02-22T04:47:43;101460.94;;;7.42;100.00
54308;BME280;40208;39.778;2.710;2023-02-22T04:50:28;101471.47;;;7.43;100.00
54308;BME280;40208;39.778;2.710;2023-02-22T04:53:12;101468.94;;;7.39;100.00
54308;BME280;40208;39.778;2.710;2023-02-22T04:55:57;101468.09;;;7.35;100.00
54308;BME280;40208;39.778;2.710;2023-02-22T04:58:42;101473.38;;;7.37;100.00
54308;BME280;40208;39.778;2.710;2023-02-22T05:01:36;101476.91;;;7.36;100.00
54308;BME280;40208;39.778;2.710;2023-02-22T05:04:21;101472.44;;;7.38;100.00
54308;BME280;40208;39.778;2.710;2023-02-22T05:07:06;101468.19;;;7.32;100.00
54308;BME280;40208;39.778;2.710;2023-02-22T05:09:51;101475.34;;;7.26;100.00
54308;BME280;40208;39.778;2.710;2023-02-22T05:12:36;101467.38;;;7.29;100.00
54308;BME280;40208;39.778;2.710;2023-02-22T05:15:20;101468.38;;;7.23;100.00
54308;BME280;40208;39.778;2.710;2023-02-22T05:18:05;101461.31;;;7.23;100.00
54308;BME280;40208;39.778;2.710;2023-02-22T05:20:50;101457.97;;;7.14;100.00
54308;BME280;40208;39.778;2.710;2023-02-22T05:23:35;101451.84;;;7.13;100.00
54308;BME280;40208;39.778;2.710;2023-02-22T05:26:20;101447.34;;;7.18;100.00
54308;BME280;40208;39.778;2.710;2023-02-22T05:29:05;101446.50;;;7.16;100.00
54308;BME280;40208;39.778;2.710;2023-02-22T05:31:50;101435.72;;;7.29;100.00
54308;BME280;40208;39.778;2.710;2023-02-22T05:34:35;101434.72;;;7.33;100.00
54308;BME280;40208;39.778;2.710;2023-02-22T05:37:20;101431.38;;;7.26;100.00
54308;BME280;40208;39.778;2.710;2023-02-22T05:40:04;101433.94;;;7.28;100.00
54308;BME280;40208;39.778;2.710;2023-02-22T05:42:51;101426.88;;;7.28;100.00
54308;BME280;40208;39.778;2.710;2023-02-22T05:45:35;101433.88;;;7.31;100.00
54308;BME280;40208;39.778;2.710;2023-02-22T05:48:20;101442.03;;;7.20;100.00
54308;BME280;40208;39.778;2.710;2023-02-22T05:51:05;101436.25;;;7.03;100.00
54308;BME280;40208;39.778;2.710;2023-02-22T05:53:50;101440.78;;;6.94;100.00
54308;BME280;40208;39.778;2.710;2023-02-22T05:56:35;101443.41;;;6.96;100.00
54308;BME280;40208;39.778;2.710;2023-02-22T05:59:20;101456.84;;;6.84;100.00
54308;BME280;40208;39.778;2.710;2023-02-22T06:02:04;101456.94;;;6.77;100.00
54308;BME280;40208;39.778;2.710;2023-02-22T06:04:49;101460.50;;;6.75;100.00
54308;BME280;40208;39.778;2.710;2023-02-22T06:07:34;101469.25;;;6.77;100.00
54308;BME280;40208;39.778;2.710;2023-02-22T06:10:19;101478.94;;;6.76;100.00
54308;BME280;40208;39.778;2.710;2023-02-22T06:13:05;101484.09;;;6.84;100.00
54308;BME280;40208;39.778;2.710;2023-02-22T06:15:50;101481.50;;;6.81;100.00
54308;BME280;40208;39.778;2.710;2023-02-22T06:18:35;101488.50;;;6.82;100.00
54308;BME280;40208;39.778;2.710;2023-02-22T06:21:19;101489.59;;;6.70;100.00
54308;BME280;40208;39.778;2.710;2023-02-22T06:24:05;101487.91;;;6.66;100.00
54308;BME280;40208;39.778;2.710;2023-02-22T06:26:56;101497.75;;;6.56;100.00
54308;BME280;40208;39.778;2.710;2023-02-22T06:29:43;101497.03;;;6.47;100.00
54308;BME280;40208;39.778;2.710;2023-02-22T06:32:28;101500.59;;;6.46;100.00
54308;BME280;40208;39.778;2.710;2023-02-22T06:35:13;101504.06;;;6.48;100.00
54308;BME280;40208;39.778;2.710;2023-02-22T06:37:58;101507.59;;;6.47;100.00
54308;BME280;40208;39.778;2.710;2023-02-22T06:40:43;101512.00;;;6.46;100.00
54308;BME280;40208;39.778;2.710;2023-02-22T06:43:35;101519.78;;;6.54;100.00
54308;BME280;40208;39.778;2.710;2023-02-22T06:46:20;101510.09;;;6.54;100.00
54308;BME280;40208;39.778;2.710;2023-02-22T06:49:05;101510.91;;;6.58;100.00
54308;BME280;40208;39.778;2.710;2023-02-22T06:51:50;101505.59;;;6.61;100.00
54308;BME280;40208;39.778;2.710;2023-02-22T06:54:35;101514.28;;;6.66;100.00
54308;BME280;40208;39.778;2.710;2023-02-22T06:57:20;101512.41;;;6.73;100.00
54308;BME280;40208;39.778;2.710;2023-02-22T07:00:05;101521.09;;;6.79;100.00
54308;BME280;40208;39.778;2.710;2023-02-22T07:02:51;101510.47;;;6.84;100.00
54308;BME280;40208;39.778;2.710;2023-02-22T07:05:36;101518.38;;;6.84;100.00
54308;BME280;40208;39.778;2.710;2023-02-22T07:08:21;101524.53;;;6.85;100.00
54308;BME280;40208;39.778;2.710;2023-02-22T07:11:06;101528.16;;;6.77;100.00
54308;BME280;40208;39.778;2.710;2023-02-22T07:13:50;101535.09;;;6.83;100.00
54308;BME280;40208;39.778;2.710;2023-02-22T07:16:35;101530.75;;;6.80;100.00
54308;BME280;40208;39.778;2.710;2023-02-22T07:19:20;101540.25;;;6.91;100.00
54308;BME280;40208;39.778;2.710;2023-02-22T07:22:05;101547.13;;;6.99;100.00
54308;BME280;40208;39.778;2.710;2023-02-22T07:24:49;101560.13;;;7.10;100.00
54308;BME280;40208;39.778;2.710;2023-02-22T07:27:38;101568.69;;;7.23;100.00
54308;BME280;40208;39.778;2.710;2023-02-22T07:30:23;101569.38;;;7.33;100.00
54308;BME280;40208;39.778;2.710;2023-02-22T07:33:10;101571.91;;;7.40;100.00
54308;BME280;40208;39.778;2.710;2023-02-22T07:35:55;101574.50;;;7.42;100.00
54308;BME280;40208;39.778;2.710;2023-02-22T07:38:39;101570.78;;;7.52;100.00
54308;BME280;40208;39.778;2.710;2023-02-22T07:41:24;101567.16;;;7.58;100.00
54308;BME280;40208;39.778;2.710;2023-02-22T07:44:09;101574.97;;;7.64;100.00
54308;BME280;40208;39.778;2.710;2023-02-22T07:46:53;101573.03;;;7.71;100.00
54308;BME280;40208;39.778;2.710;2023-02-22T07:49:38;101575.56;;;7.77;100.00
54308;BME280;40208;39.778;2.710;2023-02-22T07:52:23;101581.53;;;7.86;100.00
54308;BME280;40208;39.778;2.710;2023-02-22T07:55:08;101572.53;;;7.95;100.00
54308;BME280;40208;39.778;2.710;2023-02-22T07:57:54;101582.88;;;8.06;100.00
54308;BME280;40208;39.778;2.710;2023-02-22T08:00:38;101588.69;;;8.22;100.00
54308;BME280;40208;39.778;2.710;2023-02-22T08:03:24;101595.38;;;8.38;100.00
54308;BME280;40208;39.778;2.710;2023-02-22T08:06:09;101595.13;;;8.51;100.00
54308;BME280;40208;39.778;2.710;2023-02-22T08:08:55;101609.81;;;8.64;100.00
54308;BME280;40208;39.778;2.710;2023-02-22T08:11:39;101610.47;;;8.74;100.00
54308;BME280;40208;39.778;2.710;2023-02-22T08:14:24;101612.78;;;8.87;100.00
54308;BME280;40208;39.778;2.710;2023-02-22T08:17:09;101616.13;;;8.94;100.00
54308;BME280;40208;39.778;2.710;2023-02-22T08:19:54;101612.28;;;9.06;100.00
54308;BME280;40208;39.778;2.710;2023-02-22T08:22:41;101605.78;;;9.19;100.00
54308;BME280;40208;39.778;2.710;2023-02-22T08:25:27;101611.66;;;9.30;100.00
54308;BME280;40208;39.778;2.710;2023-02-22T08:28:13;101606.31;;;9.32;100.00
54308;BME280;40208;39.778;2.710;2023-02-22T08:30:58;101604.38;;;9.39;100.00
54308;BME280;40208;39.778;2.710;2023-02-22T08:33:46;101601.50;;;9.46;100.00
54308;BME280;40208;39.778;2.710;2023-02-22T08:36:30;101603.16;;;9.50;100.00
54308;BME280;40208;39.778;2.710;2023-02-22T08:39:16;101612.69;;;9.58;100.00
54308;BME280;40208;39.778;2.710;2023-02-22T08:42:00;101615.91;;;9.69;100.00
54308;BME280;40208;39.778;2.710;2023-02-22T08:44:45;101608.44;;;9.83;100.00
54308;BME280;40208;39.778;2.710;2023-02-22T08:47:30;101613.25;;;10.00;100.00
54308;BME280;40208;39.778;2.710;2023-02-22T08:50:20;101604.81;;;10.15;100.00
54308;BME280;40208;39.778;2.710;2023-02-22T08:53:05;101604.41;;;10.31;100.00
54308;BME280;40208;39.778;2.710;2023-02-22T08:55:50;101598.56;;;10.48;100.00
54308;BME280;40208;39.778;2.710;2023-02-22T08:58:35;101598.03;;;10.65;100.00
54308;BME280;40208;39.778;2.710;2023-02-22T09:01:20;101590.44;;;10.80;100.00
54308;BME280;40208;39.778;2.710;2023-02-22T09:04:07;101593.44;;;10.96;100.00
54308;BME280;40208;39.778;2.710;2023-02-22T09:06:52;101599.91;;;11.14;100.00
54308;BME280;40208;39.778;2.710;2023-02-22T09:09:36;101581.53;;;11.33;100.00
54308;BME280;40208;39.778;2.710;2023-02-22T09:12:21;101577.97;;;11.58;100.00
54308;BME280;40208;39.778;2.710;2023-02-22T09:15:06;101578.78;;;11.85;100.00
54308;BME280;40208;39.778;2.710;2023-02-22T09:17:51;101565.31;;;12.13;100.00
54308;BME280;40208;39.778;2.710;2023-02-22T09:20:37;101566.53;;;12.26;100.00
54308;BME280;40208;39.778;2.710;2023-02-22T09:23:21;101565.75;;;12.46;100.00
54308;BME280;40208;39.778;2.710;2023-02-22T09:26:07;101565.88;;;12.65;100.00
54308;BME280;40208;39.778;2.710;2023-02-22T09:28:52;101567.19;;;12.98;100.00
54308;BME280;40208;39.778;2.710;2023-02-22T09:31:37;101563.81;;;13.14;100.00
54308;BME280;40208;39.778;2.710;2023-02-22T09:34:22;101565.69;;;13.33;100.00
54308;BME280;40208;39.778;2.710;2023-02-22T09:37:12;101567.69;;;13.48;100.00
54308;BME280;40208;39.778;2.710;2023-02-22T09:39:57;101565.84;;;13.69;100.00
54308;BME280;40208;39.778;2.710;2023-02-22T09:42:44;101561.31;;;13.90;100.00
54308;BME280;40208;39.778;2.710;2023-02-22T09:46:07;101555.75;;;14.14;100.00
54308;BME280;40208;39.778;2.710;2023-02-22T09:54:49;101576.59;;;14.80;100.00
54308;BME280;40208;39.778;2.710;2023-02-22T09:57:39;101578.50;;;15.13;100.00
54308;BME280;40208;39.778;2.710;2023-02-22T10:00:35;101580.13;;;15.33;100.00
54308;BME280;40208;39.778;2.710;2023-02-22T10:03:41;101578.13;;;15.38;100.00
54308;BME280;40208;39.778;2.710;2023-02-22T10:06:31;101579.00;;;15.72;100.00
54308;BME280;40208;39.778;2.710;2023-02-22T10:09:17;101584.53;;;16.02;100.00
54308;BME280;40208;39.778;2.710;2023-02-22T10:12:08;101566.63;;;16.18;100.00
54308;BME280;40208;39.778;2.710;2023-02-22T10:21:14;101580.75;;;17.00;100.00
54308;BME280;40208;39.778;2.710;2023-02-22T10:24:19;101568.38;;;16.97;100.00
54308;BME280;40208;39.778;2.710;2023-02-22T10:27:15;101572.66;;;16.85;100.00
54308;BME280;40208;39.778;2.710;2023-02-22T10:30:20;101566.13;;;16.89;100.00
54308;BME280;40208;39.778;2.710;2023-02-22T10:33:11;101563.56;;;16.88;100.00
54308;BME280;40208;39.778;2.710;2023-02-22T10:35:58;101554.75;;;16.86;100.00
54308;BME280;40208;39.778;2.710;2023-02-22T10:38:44;101571.34;;;16.92;100.00
54308;BME280;40208;39.778;2.710;2023-02-22T10:41:34;101558.44;;;16.99;100.00
54308;BME280;40208;39.778;2.710;2023-02-22T10:44:21;101554.31;;;17.08;100.00
54308;BME280;40208;39.778;2.710;2023-02-22T10:47:06;101559.31;;;17.14;100.00
54308;BME280;40208;39.778;2.710;2023-02-22T10:49:52;101540.16;;;17.34;100.00
54308;BME280;40208;39.778;2.710;2023-02-22T10:52:38;101536.63;;;17.34;100.00
54308;BME280;40208;39.778;2.710;2023-02-22T10:55:23;101529.94;;;17.41;100.00
54308;BME280;40208;39.778;2.710;2023-02-22T10:58:08;101525.72;;;17.51;100.00
54308;BME280;40208;39.778;2.710;2023-02-22T11:00:53;101526.66;;;17.50;100.00
54308;BME280;40208;39.778;2.710;2023-02-22T11:03:38;101528.78;;;17.74;100.00
54308;BME280;40208;39.778;2.710;2023-02-22T11:06:23;101529.56;;;17.90;100.00
54308;BME280;40208;39.778;2.710;2023-02-22T11:12:06;101525.88;;;18.20;100.00
54308;BME280;40208;39.778;2.710;2023-02-22T11:14:51;101526.97;;;18.30;100.00
54308;BME280;40208;39.778;2.710;2023-02-22T11:17:35;101534.47;;;18.25;100.00
54308;BME280;40208;39.778;2.710;2023-02-22T11:20:30;101544.63;;;18.34;100.00
54308;BME280;40208;39.778;2.710;2023-02-22T11:23:19;101546.84;;;18.28;100.00
54308;BME280;40208;39.778;2.710;2023-02-22T11:26:14;101541.88;;;18.21;100.00
54308;BME280;40208;39.778;2.710;2023-02-22T11:29:04;101542.38;;;18.14;100.00
54308;BME280;40208;39.778;2.710;2023-02-22T11:31:52;101528.16;;;18.12;100.00
54308;BME280;40208;39.778;2.710;2023-02-22T11:34:39;101538.66;;;18.02;100.00
54308;BME280;40208;39.778;2.710;2023-02-22T11:37:29;101534.41;;;18.12;100.00
54308;BME280;40208;39.778;2.710;2023-02-22T11:43:06;101521.44;;;18.19;100.00
54308;BME280;40208;39.778;2.710;2023-02-22T11:48:40;101517.16;;;18.29;100.00
54308;BME280;40208;39.778;2.710;2023-02-22T11:51:37;101516.88;;;18.34;100.00
54308;BME280;40208;39.778;2.710;2023-02-22T12:00:55;101494.00;;;18.41;100.00
54308;BME280;40208;39.778;2.710;2023-02-22T12:09:36;101475.25;;;18.54;100.00
54308;BME280;40208;39.778;2.710;2023-02-22T12:20:57;101470.19;;;18.62;100.00
54308;BME280;40208;39.778;2.710;2023-02-22T12:23:50;101471.13;;;18.48;100.00
54308;BME280;40208;39.778;2.710;2023-02-22T12:26:37;101468.31;;;18.37;100.00
54308;BME280;40208;39.778;2.710;2023-02-22T12:29:42;101453.97;;;18.23;100.00
54308;BME280;40208;39.778;2.710;2023-02-22T12:32:52;101437.59;;;18.14;100.00
54308;BME280;40208;39.778;2.710;2023-02-22T12:35:39;101431.59;;;17.96;100.00
54308;BME280;40208;39.778;2.710;2023-02-22T12:41:25;101422.13;;;17.90;100.00
54308;BME280;40208;39.778;2.710;2023-02-22T12:44:26;101435.72;;;18.01;100.00
54308;BME280;40208;39.778;2.710;2023-02-22T12:47:17;101426.00;;;18.13;100.00
54308;BME280;40208;39.778;2.710;2023-02-22T12:50:19;101418.28;;;18.21;100.00
54308;BME280;40208;39.778;2.710;2023-02-22T12:53:11;101428.19;;;18.34;100.00
54308;BME280;40208;39.778;2.710;2023-02-22T13:01:49;101424.69;;;18.72;100.00
54308;BME280;40208;39.778;2.710;2023-02-22T13:04:34;101426.78;;;18.81;100.00
54308;BME280;40208;39.778;2.710;2023-02-22T13:10:27;101420.13;;;18.99;100.00
54308;BME280;40208;39.778;2.710;2023-02-22T13:27:37;101416.47;;;18.88;100.00
54308;BME280;40208;39.778;2.710;2023-02-22T13:33:24;101405.34;;;18.67;100.00
54308;BME280;40208;39.778;2.710;2023-02-22T13:41:50;101410.50;;;18.44;100.00
54308;BME280;40208;39.778;2.710;2023-02-22T13:44:44;101392.94;;;18.38;100.00
54308;BME280;40208;39.778;2.710;2023-02-22T13:53:38;101379.78;;;18.08;100.00
54308;BME280;40208;39.778;2.710;2023-02-22T13:56:26;101379.88;;;18.07;100.00
54308;BME280;40208;39.778;2.710;2023-02-22T13:59:30;101375.66;;;18.02;100.00
54308;BME280;40208;39.778;2.710;2023-02-22T14:02:31;101370.56;;;18.25;100.00
54308;BME280;40208;39.778;2.710;2023-02-22T14:05:33;101381.56;;;18.35;100.00
54308;BME280;40208;39.778;2.710;2023-02-22T14:11:03;101374.78;;;18.55;100.00
54308;BME280;40208;39.778;2.710;2023-02-22T14:16:43;101372.13;;;18.68;100.00
54308;BME280;40208;39.778;2.710;2023-02-22T14:20:00;101378.81;;;18.75;100.00
54308;BME280;40208;39.778;2.710;2023-02-22T14:22:49;101390.06;;;18.67;100.00
54308;BME280;40208;39.778;2.710;2023-02-22T14:25:38;101378.81;;;18.75;100.00
54308;BME280;40208;39.778;2.710;2023-02-22T14:31:27;101387.28;;;18.69;100.00
54308;BME280;40208;39.778;2.710;2023-02-22T14:34:13;101379.75;;;18.74;100.00
54308;BME280;40208;39.778;2.710;2023-02-22T14:37:01;101386.44;;;18.81;100.00
54308;BME280;40208;39.778;2.710;2023-02-22T14:39:52;101374.28;;;18.88;100.00
54308;BME280;40208;39.778;2.710;2023-02-22T14:42:42;101370.13;;;18.84;100.00
54308;BME280;40208;39.778;2.710;2023-02-22T14:45:30;101362.25;;;18.81;100.00
54308;BME280;40208;39.778;2.710;2023-02-22T14:51:16;101365.59;;;18.84;100.00
54308;BME280;40208;39.778;2.710;2023-02-22T14:54:05;101355.47;;;18.88;100.00
54308;BME280;40208;39.778;2.710;2023-02-22T14:57:01;101363.97;;;18.82;100.00
54308;BME280;40208;39.778;2.710;2023-02-22T15:02:42;101363.09;;;18.69;100.00
54308;BME280;40208;39.778;2.710;2023-02-22T15:05:28;101372.31;;;18.64;100.00
54308;BME280;40208;39.778;2.710;2023-02-22T15:08:14;101371.78;;;18.59;100.00
54308;BME280;40208;39.778;2.710;2023-02-22T15:10:59;101381.16;;;18.54;100.00
54308;BME280;40208;39.778;2.710;2023-02-22T15:13:52;101376.84;;;18.51;100.00
54308;BME280;40208;39.778;2.710;2023-02-22T15:16:37;101383.28;;;18.49;100.00
54308;BME280;40208;39.778;2.710;2023-02-22T15:19:23;101381.03;;;18.42;100.00
54308;BME280;40208;39.778;2.710;2023-02-22T15:22:22;101381.34;;;18.38;100.00
54308;BME280;40208;39.778;2.710;2023-02-22T15:25:07;101387.13;;;18.32;100.00
54308;BME280;40208;39.778;2.710;2023-02-22T15:27:52;101382.47;;;18.21;100.00
54308;BME280;40208;39.778;2.710;2023-02-22T15:30:44;101394.31;;;18.18;100.00
54308;BME280;40208;39.778;2.710;2023-02-22T15:33:28;101391.47;;;18.07;100.00
54308;BME280;40208;39.778;2.710;2023-02-22T15:36:24;101390.81;;;18.04;100.00
54308;BME280;40208;39.778;2.710;2023-02-22T15:39:18;101397.88;;;17.92;100.00
54308;BME280;40208;39.778;2.710;2023-02-22T15:42:11;101385.06;;;17.83;100.00
54308;BME280;40208;39.778;2.710;2023-02-22T15:45:03;101391.94;;;17.72;100.00
54308;BME280;40208;39.778;2.710;2023-02-22T15:47:48;101392.44;;;17.65;100.00
54308;BME280;40208;39.778;2.710;2023-02-22T15:50:33;101392.09;;;17.56;100.00
54308;BME280;40208;39.778;2.710;2023-02-22T15:53:23;101391.53;;;17.51;100.00
54308;BME280;40208;39.778;2.710;2023-02-22T15:56:10;101390.84;;;17.48;100.00
54308;BME280;40208;39.778;2.710;2023-02-22T15:59:01;101390.50;;;17.40;100.00
54308;BME280;40208;39.778;2.710;2023-02-22T16:01:49;101394.53;;;17.32;100.00
54308;BME280;40208;39.778;2.710;2023-02-22T16:04:36;101387.63;;;17.28;100.00
54308;BME280;40208;39.778;2.710;2023-02-22T16:07:21;101391.66;;;17.21;100.00
54308;BME280;40208;39.778;2.710;2023-02-22T16:10:13;101387.44;;;17.17;100.00
54308;BME280;40208;39.778;2.710;2023-02-22T16:13:09;101386.13;;;17.10;100.00
54308;BME280;40208;39.778;2.710;2023-02-22T16:16:04;101389.06;;;17.05;100.00
54308;BME280;40208;39.778;2.710;2023-02-22T16:18:50;101384.13;;;16.99;100.00
54308;BME280;40208;39.778;2.710;2023-02-22T16:21:48;101378.44;;;16.89;100.00
54308;BME280;40208;39.778;2.710;2023-02-22T16:24:34;101376.06;;;16.85;100.00
54308;BME280;40208;39.778;2.710;2023-02-22T16:27:22;101379.03;;;16.80;100.00
54308;BME280;40208;39.778;2.710;2023-02-22T16:33:05;101368.72;;;16.72;100.00
54308;BME280;40208;39.778;2.710;2023-02-22T16:35:53;101369.78;;;16.70;100.00
54308;BME280;40208;39.778;2.710;2023-02-22T16:38:40;101357.56;;;16.66;100.00
54308;BME280;40208;39.778;2.710;2023-02-22T16:41:27;101361.38;;;16.62;100.00
54308;BME280;40208;39.778;2.710;2023-02-22T16:44:14;101358.00;;;16.58;100.00
54308;BME280;40208;39.778;2.710;2023-02-22T16:47:00;101353.69;;;16.56;100.00
54308;BME280;40208;39.778;2.710;2023-02-22T16:49:48;101356.75;;;16.49;100.00
54308;BME280;40208;39.778;2.710;2023-02-22T16:52:37;101359.53;;;16.48;100.00
54308;BME280;40208;39.778;2.710;2023-02-22T16:55:22;101357.91;;;16.45;100.00
54308;BME280;40208;39.778;2.710;2023-02-22T16:58:07;101358.09;;;16.42;100.00
54308;BME280;40208;39.778;2.710;2023-02-22T17:00:53;101360.84;;;16.41;100.00
54308;BME280;40208;39.778;2.710;2023-02-22T17:03:38;101354.63;;;16.40;100.00
54308;BME280;40208;39.778;2.710;2023-02-22T17:06:23;101359.56;;;16.32;100.00
54308;BME280;40208;39.778;2.710;2023-02-22T17:09:08;101354.69;;;16.24;100.00
54308;BME280;40208;39.778;2.710;2023-02-22T17:11:53;101360.31;;;16.20;100.00